This is the latest recevied weather packets stored in our database for station/object KG4QWI. If no packets are shown the sender has not sent any weather packets the latest 10 day(s).
| Time | Temp. | Humidity | Pressure | Rain* | Wind** | Luminosity | Snow |
|---|---|---|---|---|---|---|---|
| 1777333238 | 22.78° C | 53% | 1016.3 hPa | 0 mm | - | 18 W/m² | - |
| 1777332938 | 22.78° C | 53% | 1016.3 hPa | 0 mm | - | 16 W/m² | - |
| 1777330538 | 23.33° C | 52% | 1016.3 hPa | 0 mm | - | 23 W/m² | - |
| 1777329337 | 23.89° C | 50% | 1016.1 hPa | 0 mm | - | 25 W/m² | - |
| 1777328739 | 23.89° C | 53% | 1016.3 hPa | 0 mm | - | 30 W/m² | - |
| 1777327538 | 24.44° C | 54% | 1016.5 hPa | 0 mm | - | 32 W/m² | - |
| 1777326347 | 23.89° C | 55% | 1016.5 hPa | 0 mm | - | 90 W/m² | - |
| 1777326039 | 23.89° C | 54% | 1016.6 hPa | 0 mm | - | 33 W/m² | - |
| 1777325139 | 23.89° C | 53% | 1016.6 hPa | 0 mm | - | 33 W/m² | - |
| 1777322442 | 23.89° C | 56% | 1016.7 hPa | 0 mm | - | 51 W/m² | - |
| 1777321846 | 23.89° C | 57% | 1016.9 hPa | 0 mm | - | 70 W/m² | - |
| 1777321540 | 23.89° C | 56% | 1017.1 hPa | 0 mm | - | 84 W/m² | - |
| 1777320051 | 23.33° C | 55% | 1017.5 hPa | 0 mm | - | 90 W/m² | - |
| 1777319740 | 23.33° C | 55% | 1017.5 hPa | 0 mm | - | 98 W/m² | - |
| 1777318839 | 23.33° C | 53% | 1017.6 hPa | 0 mm | - | 190 W/m² | - |
| 1777318253 | 22.78° C | 53% | 1017.9 hPa | 0 mm | - | 211 W/m² | - |
| 1777317039 | 22.78° C | 53% | 1017.8 hPa | 0 mm | - | 207 W/m² | - |
| 1777316488 | 22.78° C | 53% | 1017.9 hPa | 0 mm | - | 230 W/m² | - |
| 1777316143 | 22.78° C | 52% | 1017.9 hPa | 0 mm | - | 246 W/m² | - |
| 1777315240 | 22.78° C | 54% | 1017.7 hPa | 0 mm | - | 272 W/m² | - |
| 1777313749 | 23.33° C | 54% | 1018 hPa | 0 mm | - | 211 W/m² | - |
| 1777311946 | 22.78° C | 56% | 1018.5 hPa | 0 mm | - | 308 W/m² | - |
| 1777309838 | 22.78° C | 57% | 1019.1 hPa | 0 mm | - | 814 W/m² | - |
| 1777309258 | 22.78° C | 62% | 1019.2 hPa | 0 mm | - | 854 W/m² | - |
| 1777306238 | 21.11° C | 62% | 1019.9 hPa | 0 mm | - | 853 W/m² | - |
* Rain latest hour (hover to see other rain measurements)
** Current wind speed in m/s (hover to see current wind gust speed)